sensor_id;sensor_type;location;lat;lon;timestamp;pressure;altitude;pressure_sealevel;temperature;humidity
74627;BME280;63132;52.268;5.192;2023-04-12T00:00:29;100385.69;;;7.31;83.17
74627;BME280;63132;52.268;5.192;2023-04-12T00:02:55;100375.88;;;7.20;83.72
74627;BME280;63132;52.268;5.192;2023-04-12T00:05:23;100361.38;;;7.26;84.54
74627;BME280;63132;52.268;5.192;2023-04-12T00:07:52;100355.56;;;7.21;84.67
74627;BME280;63132;52.268;5.192;2023-04-12T00:10:17;100354.72;;;7.20;84.41
74627;BME280;63132;52.268;5.192;2023-04-12T00:12:43;100344.81;;;7.11;85.02
74627;BME280;63132;52.268;5.192;2023-04-12T00:15:08;100336.63;;;7.14;84.79
74627;BME280;63132;52.268;5.192;2023-04-12T00:17:34;100333.06;;;7.15;85.62
74627;BME280;63132;52.268;5.192;2023-04-12T00:19:59;100325.84;;;7.17;85.07
74627;BME280;63132;52.268;5.192;2023-04-12T00:22:24;100330.72;;;7.24;84.72
74627;BME280;63132;52.268;5.192;2023-04-12T00:24:50;100324.63;;;7.10;85.22
74627;BME280;63132;52.268;5.192;2023-04-12T00:27:16;100307.59;;;7.01;86.07
74627;BME280;63132;52.268;5.192;2023-04-12T00:29:41;100308.13;;;7.06;86.47
74627;BME280;63132;52.268;5.192;2023-04-12T00:32:06;100299.03;;;6.97;86.10
74627;BME280;63132;52.268;5.192;2023-04-12T00:34:32;100294.44;;;6.88;86.99
74627;BME280;63132;52.268;5.192;2023-04-12T00:36:57;100283.41;;;6.94;86.71
74627;BME280;63132;52.268;5.192;2023-04-12T00:39:22;100275.19;;;6.86;87.00
74627;BME280;63132;52.268;5.192;2023-04-12T00:41:48;100263.44;;;6.90;86.78
74627;BME280;63132;52.268;5.192;2023-04-12T00:44:13;100253.88;;;7.01;87.30
74627;BME280;63132;52.268;5.192;2023-04-12T00:46:42;100252.75;;;6.92;86.71
74627;BME280;63132;52.268;5.192;2023-04-12T00:49:07;100241.31;;;6.91;86.62
74627;BME280;63132;52.268;5.192;2023-04-12T00:51:33;100234.56;;;6.87;86.85
74627;BME280;63132;52.268;5.192;2023-04-12T00:53:59;100224.09;;;6.85;86.88
74627;BME280;63132;52.268;5.192;2023-04-12T00:56:26;100222.03;;;6.78;87.22
74627;BME280;63132;52.268;5.192;2023-04-12T00:58:56;100205.53;;;6.74;87.22
74627;BME280;63132;52.268;5.192;2023-04-12T01:01:21;100205.19;;;6.79;87.21
74627;BME280;63132;52.268;5.192;2023-04-12T01:03:48;100212.84;;;6.70;87.45
74627;BME280;63132;52.268;5.192;2023-04-12T01:09:23;100181.84;;;6.72;87.49
74627;BME280;63132;52.268;5.192;2023-04-12T01:12:28;100188.44;;;6.67;87.48
74627;BME280;63132;52.268;5.192;2023-04-12T01:15:10;100173.66;;;6.64;87.87
74627;BME280;63132;52.268;5.192;2023-04-12T01:17:45;100163.53;;;6.58;88.06
74627;BME280;63132;52.268;5.192;2023-04-12T01:20:18;100158.28;;;6.69;87.16
74627;BME280;63132;52.268;5.192;2023-04-12T01:25:39;100130.28;;;6.67;87.52
74627;BME280;63132;52.268;5.192;2023-04-12T01:28:11;100128.59;;;6.66;87.49
74627;BME280;63132;52.268;5.192;2023-04-12T01:30:41;100120.56;;;6.67;87.49
74627;BME280;63132;52.268;5.192;2023-04-12T01:33:09;100112.47;;;6.57;87.49
74627;BME280;63132;52.268;5.192;2023-04-12T01:35:36;100102.00;;;6.56;87.70
74627;BME280;63132;52.268;5.192;2023-04-12T01:38:02;100111.84;;;6.54;88.23
74627;BME280;63132;52.268;5.192;2023-04-12T01:40:28;100095.63;;;6.47;87.99
74627;BME280;63132;52.268;5.192;2023-04-12T01:43:11;100087.72;;;6.58;87.78
74627;BME280;63132;52.268;5.192;2023-04-12T01:45:37;100091.19;;;6.59;87.86
74627;BME280;63132;52.268;5.192;2023-04-12T01:48:09;100067.09;;;6.63;87.66
74627;BME280;63132;52.268;5.192;2023-04-12T01:50:48;100063.59;;;6.63;87.66
74627;BME280;63132;52.268;5.192;2023-04-12T01:53:19;100058.53;;;6.60;88.00
74627;BME280;63132;52.268;5.192;2023-04-12T01:55:45;100052.59;;;6.81;87.38
74627;BME280;63132;52.268;5.192;2023-04-12T01:58:18;100053.00;;;6.63;87.70
74627;BME280;63132;52.268;5.192;2023-04-12T02:00:44;100037.44;;;6.71;87.13
74627;BME280;63132;52.268;5.192;2023-04-12T02:03:10;100034.50;;;6.63;87.09
74627;BME280;63132;52.268;5.192;2023-04-12T02:05:36;100025.13;;;6.59;87.72
74627;BME280;63132;52.268;5.192;2023-04-12T02:08:02;100025.63;;;6.64;87.81
74627;BME280;63132;52.268;5.192;2023-04-12T02:10:29;100008.22;;;6.73;87.47
74627;BME280;63132;52.268;5.192;2023-04-12T02:12:57;100005.31;;;6.65;87.69
74627;BME280;63132;52.268;5.192;2023-04-12T02:15:22;99993.22;;;6.73;87.63
74627;BME280;63132;52.268;5.192;2023-04-12T02:17:48;100001.88;;;6.75;87.58
74627;BME280;63132;52.268;5.192;2023-04-12T02:20:19;99995.47;;;6.67;87.79
74627;BME280;63132;52.268;5.192;2023-04-12T02:22:45;99981.81;;;6.84;87.98
74627;BME280;63132;52.268;5.192;2023-04-12T02:25:10;99980.00;;;6.73;87.92
74627;BME280;63132;52.268;5.192;2023-04-12T02:27:36;99975.06;;;6.80;87.72
74627;BME280;63132;52.268;5.192;2023-04-12T02:30:01;99969.44;;;6.85;87.27
74627;BME280;63132;52.268;5.192;2023-04-12T02:32:28;99977.47;;;6.72;87.78
74627;BME280;63132;52.268;5.192;2023-04-12T02:34:55;99958.72;;;6.63;87.95
74627;BME280;63132;52.268;5.192;2023-04-12T02:37:24;99937.69;;;6.73;87.75
74627;BME280;63132;52.268;5.192;2023-04-12T02:39:51;99940.34;;;6.62;88.15
74627;BME280;63132;52.268;5.192;2023-04-12T02:42:20;99930.81;;;6.59;88.29
74627;BME280;63132;52.268;5.192;2023-04-12T02:44:46;99927.59;;;6.67;88.28
74627;BME280;63132;52.268;5.192;2023-04-12T02:47:12;99922.06;;;6.70;88.44
74627;BME280;63132;52.268;5.192;2023-04-12T02:49:37;99913.66;;;6.65;88.24
74627;BME280;63132;52.268;5.192;2023-04-12T02:52:03;99904.66;;;6.68;88.16
74627;BME280;63132;52.268;5.192;2023-04-12T02:54:28;99893.22;;;6.67;88.41
74627;BME280;63132;52.268;5.192;2023-04-12T02:56:53;99891.56;;;6.55;88.69
74627;BME280;63132;52.268;5.192;2023-04-12T02:59:19;99883.13;;;6.61;88.49
74627;BME280;63132;52.268;5.192;2023-04-12T03:01:44;99884.94;;;6.60;89.09
74627;BME280;63132;52.268;5.192;2023-04-12T03:04:10;99877.03;;;6.72;88.98
74627;BME280;63132;52.268;5.192;2023-04-12T03:06:36;99875.72;;;6.66;88.67
74627;BME280;63132;52.268;5.192;2023-04-12T03:09:01;99868.25;;;6.71;88.80
74627;BME280;63132;52.268;5.192;2023-04-12T03:11:26;99863.31;;;6.67;89.12
74627;BME280;63132;52.268;5.192;2023-04-12T03:13:52;99854.56;;;6.55;89.13
74627;BME280;63132;52.268;5.192;2023-04-12T03:16:24;99854.19;;;6.59;89.32
74627;BME280;63132;52.268;5.192;2023-04-12T03:18:53;99840.75;;;6.62;89.40
74627;BME280;63132;52.268;5.192;2023-04-12T03:21:19;99843.13;;;6.66;89.25
74627;BME280;63132;52.268;5.192;2023-04-12T03:23:44;99837.25;;;6.62;89.24
74627;BME280;63132;52.268;5.192;2023-04-12T03:26:10;99830.88;;;6.65;89.38
74627;BME280;63132;52.268;5.192;2023-04-12T03:28:35;99832.56;;;6.77;89.09
74627;BME280;63132;52.268;5.192;2023-04-12T03:31:01;99831.38;;;6.70;89.29
74627;BME280;63132;52.268;5.192;2023-04-12T03:33:27;99825.97;;;6.60;89.57
74627;BME280;63132;52.268;5.192;2023-04-12T03:35:52;99815.72;;;6.78;89.76
74627;BME280;63132;52.268;5.192;2023-04-12T03:38:18;99818.16;;;6.70;89.41
74627;BME280;63132;52.268;5.192;2023-04-12T03:40:43;99808.78;;;6.66;89.35
74627;BME280;63132;52.268;5.192;2023-04-12T03:43:08;99806.84;;;6.68;89.81
74627;BME280;63132;52.268;5.192;2023-04-12T03:45:34;99796.28;;;6.68;89.90
74627;BME280;63132;52.268;5.192;2023-04-12T03:47:59;99786.66;;;6.55;90.25
74627;BME280;63132;52.268;5.192;2023-04-12T03:50:25;99788.22;;;6.69;89.68
74627;BME280;63132;52.268;5.192;2023-04-12T03:52:53;99781.00;;;6.71;89.74
74627;BME280;63132;52.268;5.192;2023-04-12T03:55:19;99757.38;;;6.58;89.96
74627;BME280;63132;52.268;5.192;2023-04-12T03:57:44;99777.41;;;6.61;90.33
74627;BME280;63132;52.268;5.192;2023-04-12T04:00:11;99761.78;;;6.69;89.90
74627;BME280;63132;52.268;5.192;2023-04-12T04:02:36;99758.31;;;6.69;89.88
74627;BME280;63132;52.268;5.192;2023-04-12T04:05:02;99739.94;;;6.56;90.40
74627;BME280;63132;52.268;5.192;2023-04-12T04:07:29;99741.66;;;6.57;90.43
74627;BME280;63132;52.268;5.192;2023-04-12T04:09:56;99748.13;;;6.64;90.39
74627;BME280;63132;52.268;5.192;2023-04-12T04:12:21;99737.97;;;6.81;89.80
74627;BME280;63132;52.268;5.192;2023-04-12T04:14:47;99738.50;;;6.51;90.04
74627;BME280;63132;52.268;5.192;2023-04-12T04:17:12;99738.63;;;6.61;90.82
74627;BME280;63132;52.268;5.192;2023-04-12T04:19:38;99739.59;;;6.60;90.43
74627;BME280;63132;52.268;5.192;2023-04-12T04:22:03;99723.94;;;6.69;90.40
74627;BME280;63132;52.268;5.192;2023-04-12T04:24:28;99718.16;;;6.75;90.25
74627;BME280;63132;52.268;5.192;2023-04-12T04:26:54;99714.72;;;6.63;90.14
74627;BME280;63132;52.268;5.192;2023-04-12T04:29:19;99714.59;;;6.53;90.43
74627;BME280;63132;52.268;5.192;2023-04-12T04:31:45;99721.09;;;6.60;90.65
74627;BME280;63132;52.268;5.192;2023-04-12T04:34:10;99718.06;;;6.65;90.43
74627;BME280;63132;52.268;5.192;2023-04-12T04:36:36;99727.81;;;6.53;90.56
74627;BME280;63132;52.268;5.192;2023-04-12T04:39:02;99726.38;;;6.60;90.52
74627;BME280;63132;52.268;5.192;2023-04-12T04:41:30;99710.09;;;6.77;90.74
74627;BME280;63132;52.268;5.192;2023-04-12T04:43:59;99716.28;;;6.66;90.37
74627;BME280;63132;52.268;5.192;2023-04-12T04:46:24;99715.66;;;6.73;90.61
74627;BME280;63132;52.268;5.192;2023-04-12T04:48:49;99706.41;;;6.68;90.50
74627;BME280;63132;52.268;5.192;2023-04-12T04:51:16;99716.22;;;6.89;90.41
74627;BME280;63132;52.268;5.192;2023-04-12T04:53:41;99708.66;;;6.72;89.94
74627;BME280;63132;52.268;5.192;2023-04-12T04:56:07;99700.03;;;6.70;90.04
74627;BME280;63132;52.268;5.192;2023-04-12T04:58:33;99706.50;;;6.78;90.42
74627;BME280;63132;52.268;5.192;2023-04-12T05:00:58;99694.69;;;6.82;90.27
74627;BME280;63132;52.268;5.192;2023-04-12T05:03:24;99693.03;;;6.81;90.39
74627;BME280;63132;52.268;5.192;2023-04-12T05:05:53;99699.50;;;6.88;90.37
74627;BME280;63132;52.268;5.192;2023-04-12T05:08:18;99707.91;;;6.82;90.27
74627;BME280;63132;52.268;5.192;2023-04-12T05:10:44;99701.50;;;6.96;89.72
74627;BME280;63132;52.268;5.192;2023-04-12T05:13:09;99712.97;;;6.85;89.71
74627;BME280;63132;52.268;5.192;2023-04-12T05:15:35;99699.44;;;6.99;90.25
74627;BME280;63132;52.268;5.192;2023-04-12T05:18:00;99698.56;;;7.10;89.43
74627;BME280;63132;52.268;5.192;2023-04-12T05:20:26;99682.63;;;7.01;89.52
74627;BME280;63132;52.268;5.192;2023-04-12T05:22:51;99684.94;;;6.94;89.68
74627;BME280;63132;52.268;5.192;2023-04-12T05:25:16;99680.91;;;6.78;90.03
74627;BME280;63132;52.268;5.192;2023-04-12T05:27:43;99687.25;;;6.87;90.52
74627;BME280;63132;52.268;5.192;2023-04-12T05:30:08;99691.31;;;6.91;90.50
74627;BME280;63132;52.268;5.192;2023-04-12T05:32:34;99692.84;;;6.94;90.53
74627;BME280;63132;52.268;5.192;2023-04-12T05:34:59;99689.91;;;7.08;90.37
74627;BME280;63132;52.268;5.192;2023-04-12T05:37:25;99692.31;;;7.12;89.92
74627;BME280;63132;52.268;5.192;2023-04-12T05:39:52;99687.59;;;7.15;89.54
74627;BME280;63132;52.268;5.192;2023-04-12T05:42:17;99695.66;;;7.14;89.69
74627;BME280;63132;52.268;5.192;2023-04-12T05:44:42;99691.84;;;7.28;89.18
74627;BME280;63132;52.268;5.192;2023-04-12T05:47:09;99690.63;;;7.10;89.29
74627;BME280;63132;52.268;5.192;2023-04-12T05:49:34;99694.31;;;7.19;90.18
74627;BME280;63132;52.268;5.192;2023-04-12T05:52:01;99691.03;;;7.27;89.22
74627;BME280;63132;52.268;5.192;2023-04-12T05:54:26;99704.63;;;7.22;88.94
74627;BME280;63132;52.268;5.192;2023-04-12T05:56:52;99697.16;;;7.28;89.01
74627;BME280;63132;52.268;5.192;2023-04-12T05:59:18;99690.31;;;7.25;89.08
74627;BME280;63132;52.268;5.192;2023-04-12T06:01:44;99694.41;;;7.29;88.99
74627;BME280;63132;52.268;5.192;2023-04-12T06:04:10;99698.34;;;7.35;88.65
74627;BME280;63132;52.268;5.192;2023-04-12T06:06:35;99697.50;;;7.34;88.79
74627;BME280;63132;52.268;5.192;2023-04-12T06:09:01;99698.63;;;7.42;88.57
74627;BME280;63132;52.268;5.192;2023-04-12T06:11:28;99699.22;;;7.45;88.84
74627;BME280;63132;52.268;5.192;2023-04-12T06:13:54;99705.03;;;7.39;88.78
74627;BME280;63132;52.268;5.192;2023-04-12T06:16:19;99696.78;;;7.32;89.40
74627;BME280;63132;52.268;5.192;2023-04-12T06:18:45;99692.69;;;7.50;89.31
74627;BME280;63132;52.268;5.192;2023-04-12T06:21:10;99691.34;;;7.55;88.84
74627;BME280;63132;52.268;5.192;2023-04-12T06:23:35;99692.34;;;7.64;88.59
74627;BME280;63132;52.268;5.192;2023-04-12T06:26:01;99699.41;;;7.54;88.78
74627;BME280;63132;52.268;5.192;2023-04-12T06:28:26;99703.78;;;7.65;89.07
74627;BME280;63132;52.268;5.192;2023-04-12T06:30:52;99705.44;;;7.56;88.54
74627;BME280;63132;52.268;5.192;2023-04-12T06:33:18;99697.91;;;7.61;88.45
74627;BME280;63132;52.268;5.192;2023-04-12T06:35:46;99689.84;;;7.63;88.66
74627;BME280;63132;52.268;5.192;2023-04-12T06:38:11;99694.00;;;7.55;88.74
74627;BME280;63132;52.268;5.192;2023-04-12T06:40:37;99688.28;;;7.60;88.79
74627;BME280;63132;52.268;5.192;2023-04-12T06:43:02;99684.25;;;7.56;88.82
74627;BME280;63132;52.268;5.192;2023-04-12T06:45:27;99685.41;;;7.63;89.16
74627;BME280;63132;52.268;5.192;2023-04-12T06:47:53;99684.47;;;7.74;89.01
74627;BME280;63132;52.268;5.192;2023-04-12T06:50:21;99691.13;;;7.68;88.86
74627;BME280;63132;52.268;5.192;2023-04-12T06:52:47;99687.50;;;7.69;88.63
74627;BME280;63132;52.268;5.192;2023-04-12T06:55:13;99680.19;;;7.83;88.56
74627;BME280;63132;52.268;5.192;2023-04-12T06:57:40;99677.44;;;7.85;88.76
74627;BME280;63132;52.268;5.192;2023-04-12T07:00:06;99678.56;;;7.92;88.58
74627;BME280;63132;52.268;5.192;2023-04-12T07:02:31;99677.72;;;7.91;88.46
74627;BME280;63132;52.268;5.192;2023-04-12T07:04:57;99678.00;;;7.98;88.27
74627;BME280;63132;52.268;5.192;2023-04-12T07:07:22;99680.84;;;8.07;88.51
74627;BME280;63132;52.268;5.192;2023-04-12T07:09:48;99693.69;;;8.11;87.97
74627;BME280;63132;52.268;5.192;2023-04-12T07:12:13;99684.63;;;8.14;88.08
74627;BME280;63132;52.268;5.192;2023-04-12T07:14:39;99686.56;;;8.12;88.19
74627;BME280;63132;52.268;5.192;2023-04-12T07:17:04;99678.81;;;8.30;88.44
74627;BME280;63132;52.268;5.192;2023-04-12T07:19:30;99683.72;;;8.45;87.71
74627;BME280;63132;52.268;5.192;2023-04-12T07:21:56;99692.66;;;8.44;87.42
74627;BME280;63132;52.268;5.192;2023-04-12T07:24:22;99689.00;;;8.35;87.29
74627;BME280;63132;52.268;5.192;2023-04-12T07:26:47;99696.13;;;8.44;87.43
74627;BME280;63132;52.268;5.192;2023-04-12T07:29:12;99687.41;;;8.63;86.74
74627;BME280;63132;52.268;5.192;2023-04-12T07:31:38;99680.75;;;8.79;87.02
74627;BME280;63132;52.268;5.192;2023-04-12T07:34:03;99685.75;;;8.82;86.37
74627;BME280;63132;52.268;5.192;2023-04-12T07:36:28;99687.72;;;8.90;85.84
74627;BME280;63132;52.268;5.192;2023-04-12T07:38:54;99686.47;;;9.04;85.47
74627;BME280;63132;52.268;5.192;2023-04-12T07:41:20;99686.56;;;9.32;84.93
74627;BME280;63132;52.268;5.192;2023-04-12T07:43:46;99679.91;;;9.18;84.81
74627;BME280;63132;52.268;5.192;2023-04-12T07:46:12;99672.34;;;9.33;83.84
74627;BME280;63132;52.268;5.192;2023-04-12T07:48:37;99679.31;;;9.34;83.57
74627;BME280;63132;52.268;5.192;2023-04-12T07:51:03;99675.38;;;9.39;83.59
74627;BME280;63132;52.268;5.192;2023-04-12T07:53:28;99669.53;;;9.45;82.54
74627;BME280;63132;52.268;5.192;2023-04-12T07:55:54;99668.34;;;9.57;83.29
74627;BME280;63132;52.268;5.192;2023-04-12T07:58:21;99670.72;;;9.61;82.06
74627;BME280;63132;52.268;5.192;2023-04-12T08:00:47;99670.63;;;9.52;82.62
74627;BME280;63132;52.268;5.192;2023-04-12T08:03:14;99674.38;;;9.59;82.87
74627;BME280;63132;52.268;5.192;2023-04-12T08:05:40;99677.25;;;9.76;82.11
74627;BME280;63132;52.268;5.192;2023-04-12T08:08:07;99674.78;;;9.93;80.91
74627;BME280;63132;52.268;5.192;2023-04-12T08:10:37;99678.78;;;10.07;81.11
74627;BME280;63132;52.268;5.192;2023-04-12T08:13:03;99677.72;;;10.00;80.03
74627;BME280;63132;52.268;5.192;2023-04-12T08:15:29;99667.13;;;9.90;79.98
74627;BME280;63132;52.268;5.192;2023-04-12T08:17:54;99653.00;;;9.89;77.94
74627;BME280;63132;52.268;5.192;2023-04-12T08:20:20;99652.19;;;9.89;78.23
74627;BME280;63132;52.268;5.192;2023-04-12T08:22:45;99655.41;;;9.82;78.16
74627;BME280;63132;52.268;5.192;2023-04-12T08:25:12;99659.59;;;9.85;79.10
74627;BME280;63132;52.268;5.192;2023-04-12T08:27:41;99655.38;;;9.92;78.92
74627;BME280;63132;52.268;5.192;2023-04-12T08:30:07;99655.34;;;10.02;77.76
74627;BME280;63132;52.268;5.192;2023-04-12T08:32:33;99652.25;;;9.97;78.11
74627;BME280;63132;52.268;5.192;2023-04-12T08:34:59;99658.66;;;10.04;77.80
74627;BME280;63132;52.268;5.192;2023-04-12T08:37:24;99659.16;;;10.18;76.72
74627;BME280;63132;52.268;5.192;2023-04-12T08:39:50;99665.34;;;10.37;75.00
74627;BME280;63132;52.268;5.192;2023-04-12T08:42:15;99659.63;;;10.60;75.47
74627;BME280;63132;52.268;5.192;2023-04-12T08:44:41;99670.47;;;10.48;74.31
74627;BME280;63132;52.268;5.192;2023-04-12T08:47:08;99676.94;;;10.64;73.68
74627;BME280;63132;52.268;5.192;2023-04-12T08:49:34;99652.66;;;10.30;72.62
74627;BME280;63132;52.268;5.192;2023-04-12T08:52:03;99655.66;;;10.64;72.79
74627;BME280;63132;52.268;5.192;2023-04-12T08:54:30;99656.13;;;10.59;69.15
74627;BME280;63132;52.268;5.192;2023-04-12T08:56:58;99651.41;;;10.71;70.91
74627;BME280;63132;52.268;5.192;2023-04-12T08:59:26;99655.75;;;10.72;71.11
74627;BME280;63132;52.268;5.192;2023-04-12T09:01:53;99649.22;;;10.85;70.70
74627;BME280;63132;52.268;5.192;2023-04-12T09:04:19;99650.28;;;11.37;72.60
74627;BME280;63132;52.268;5.192;2023-04-12T09:06:44;99647.88;;;11.52;69.12
74627;BME280;63132;52.268;5.192;2023-04-12T09:09:10;99639.47;;;11.39;68.67
74627;BME280;63132;52.268;5.192;2023-04-12T09:11:35;99645.28;;;11.16;69.21
74627;BME280;63132;52.268;5.192;2023-04-12T09:14:01;99644.81;;;10.75;68.51
74627;BME280;63132;52.268;5.192;2023-04-12T09:16:36;99638.75;;;10.65;67.92
74627;BME280;63132;52.268;5.192;2023-04-12T09:19:02;99636.44;;;10.88;68.51
74627;BME280;63132;52.268;5.192;2023-04-12T09:21:27;99640.84;;;10.80;67.63
74627;BME280;63132;52.268;5.192;2023-04-12T09:24:07;99631.06;;;10.80;68.49
74627;BME280;63132;52.268;5.192;2023-04-12T09:26:37;99635.13;;;11.11;65.68
74627;BME280;63132;52.268;5.192;2023-04-12T09:29:03;99639.53;;;11.02;65.69
74627;BME280;63132;52.268;5.192;2023-04-12T09:31:29;99636.28;;;11.35;65.88
74627;BME280;63132;52.268;5.192;2023-04-12T09:34:05;99650.25;;;11.64;65.72
74627;BME280;63132;52.268;5.192;2023-04-12T09:36:38;99658.66;;;11.77;63.38
74627;BME280;63132;52.268;5.192;2023-04-12T09:39:04;99655.81;;;11.79;63.77
74627;BME280;63132;52.268;5.192;2023-04-12T09:41:30;99656.84;;;11.86;63.54
74627;BME280;63132;52.268;5.192;2023-04-12T09:43:59;99649.75;;;12.03;61.57
74627;BME280;63132;52.268;5.192;2023-04-12T09:46:25;99656.44;;;12.07;60.05
74627;BME280;63132;52.268;5.192;2023-04-12T09:48:51;99655.38;;;11.92;58.59
74627;BME280;63132;52.268;5.192;2023-04-12T09:54:03;99672.72;;;11.96;58.67
74627;BME280;63132;52.268;5.192;2023-04-12T09:56:31;99663.94;;;12.04;59.53
74627;BME280;63132;52.268;5.192;2023-04-12T09:59:04;99653.94;;;12.06;58.67
74627;BME280;63132;52.268;5.192;2023-04-12T10:01:37;99653.56;;;12.27;58.14
74627;BME280;63132;52.268;5.192;2023-04-12T10:04:05;99652.06;;;12.33;59.10
74627;BME280;63132;52.268;5.192;2023-04-12T10:06:32;99638.78;;;12.83;57.40
74627;BME280;63132;52.268;5.192;2023-04-12T10:08:57;99625.09;;;13.20;56.34
74627;BME280;63132;52.268;5.192;2023-04-12T10:11:24;99638.94;;;12.98;54.95
74627;BME280;63132;52.268;5.192;2023-04-12T10:13:50;99628.94;;;12.59;57.43
74627;BME280;63132;52.268;5.192;2023-04-12T10:16:16;99641.31;;;12.08;58.97
74627;BME280;63132;52.268;5.192;2023-04-12T10:18:42;99645.25;;;12.47;57.05
74627;BME280;63132;52.268;5.192;2023-04-12T10:21:08;99647.63;;;12.50;57.38
74627;BME280;63132;52.268;5.192;2023-04-12T10:23:34;99633.59;;;12.57;55.94
74627;BME280;63132;52.268;5.192;2023-04-12T10:25:59;99636.53;;;12.28;54.25
74627;BME280;63132;52.268;5.192;2023-04-12T10:28:26;99633.09;;;12.01;55.97
74627;BME280;63132;52.268;5.192;2023-04-12T10:30:51;99632.72;;;12.39;54.92
74627;BME280;63132;52.268;5.192;2023-04-12T10:33:25;99642.25;;;12.42;56.76
74627;BME280;63132;52.268;5.192;2023-04-12T10:36:01;99626.41;;;12.40;57.12
74627;BME280;63132;52.268;5.192;2023-04-12T10:39:07;99633.25;;;11.56;57.65
74627;BME280;63132;52.268;5.192;2023-04-12T10:41:33;99629.66;;;11.39;58.77
74627;BME280;63132;52.268;5.192;2023-04-12T10:49:09;99640.56;;;11.28;59.09
74627;BME280;63132;52.268;5.192;2023-04-12T10:51:35;99639.53;;;11.47;59.52
74627;BME280;63132;52.268;5.192;2023-04-12T10:59:02;99646.88;;;11.88;60.45
74627;BME280;63132;52.268;5.192;2023-04-12T11:01:28;99640.06;;;11.94;56.75
74627;BME280;63132;52.268;5.192;2023-04-12T11:06:47;99635.75;;;12.45;54.00
74627;BME280;63132;52.268;5.192;2023-04-12T11:12:11;99630.47;;;12.86;52.32
74627;BME280;63132;52.268;5.192;2023-04-12T11:14:48;99632.91;;;12.54;52.70
74627;BME280;63132;52.268;5.192;2023-04-12T11:22:07;99636.38;;;12.30;51.08
74627;BME280;63132;52.268;5.192;2023-04-12T11:24:37;99619.78;;;12.70;51.30
74627;BME280;63132;52.268;5.192;2023-04-12T11:27:03;99633.97;;;12.78;47.62
74627;BME280;63132;52.268;5.192;2023-04-12T11:29:28;99630.09;;;13.06;48.43
74627;BME280;63132;52.268;5.192;2023-04-12T11:31:57;99618.13;;;12.94;51.14
74627;BME280;63132;52.268;5.192;2023-04-12T11:34:23;99619.22;;;13.33;50.14
74627;BME280;63132;52.268;5.192;2023-04-12T11:36:52;99625.25;;;13.26;47.45
74627;BME280;63132;52.268;5.192;2023-04-12T11:39:19;99625.50;;;13.73;48.12
74627;BME280;63132;52.268;5.192;2023-04-12T11:41:46;99626.53;;;14.04;47.49
74627;BME280;63132;52.268;5.192;2023-04-12T11:44:13;99618.25;;;13.91;46.46
74627;BME280;63132;52.268;5.192;2023-04-12T11:46:39;99637.41;;;13.46;49.77
74627;BME280;63132;52.268;5.192;2023-04-12T11:49:04;99626.75;;;13.37;47.00
74627;BME280;63132;52.268;5.192;2023-04-12T11:51:30;99627.91;;;13.35;45.13
74627;BME280;63132;52.268;5.192;2023-04-12T11:53:57;99627.56;;;13.55;46.89
74627;BME280;63132;52.268;5.192;2023-04-12T11:56:23;99635.91;;;14.00;46.18
74627;BME280;63132;52.268;5.192;2023-04-12T11:58:49;99629.25;;;13.96;46.03
74627;BME280;63132;52.268;5.192;2023-04-12T12:01:16;99633.59;;;13.32;45.89
74627;BME280;63132;52.268;5.192;2023-04-12T12:03:43;99635.28;;;12.99;46.78
74627;BME280;63132;52.268;5.192;2023-04-12T12:06:08;99642.47;;;13.07;49.02
74627;BME280;63132;52.268;5.192;2023-04-12T12:08:35;99646.78;;;12.66;49.15
74627;BME280;63132;52.268;5.192;2023-04-12T12:11:01;99641.94;;;12.53;48.50
74627;BME280;63132;52.268;5.192;2023-04-12T12:13:26;99639.28;;;12.62;43.88
74627;BME280;63132;52.268;5.192;2023-04-12T12:15:52;99641.44;;;12.83;42.32
74627;BME280;63132;52.268;5.192;2023-04-12T12:18:17;99636.31;;;12.90;43.55
74627;BME280;63132;52.268;5.192;2023-04-12T12:20:49;99642.09;;;13.35;42.06
74627;BME280;63132;52.268;5.192;2023-04-12T12:23:31;99644.94;;;13.25;43.80
74627;BME280;63132;52.268;5.192;2023-04-12T12:25:57;99639.06;;;13.47;41.16
74627;BME280;63132;52.268;5.192;2023-04-12T12:28:23;99646.78;;;13.33;43.15
74627;BME280;63132;52.268;5.192;2023-04-12T12:30:51;99649.44;;;13.33;40.95
74627;BME280;63132;52.268;5.192;2023-04-12T12:33:20;99649.44;;;13.58;40.82
74627;BME280;63132;52.268;5.192;2023-04-12T12:35:45;99651.59;;;13.63;37.78
74627;BME280;63132;52.268;5.192;2023-04-12T12:38:10;99648.81;;;13.23;38.55
74627;BME280;63132;52.268;5.192;2023-04-12T12:40:36;99652.94;;;13.25;39.01
74627;BME280;63132;52.268;5.192;2023-04-12T12:43:02;99648.91;;;13.46;39.77
74627;BME280;63132;52.268;5.192;2023-04-12T12:45:30;99661.56;;;13.86;40.43
74627;BME280;63132;52.268;5.192;2023-04-12T12:48:00;99651.09;;;13.59;41.02
74627;BME280;63132;52.268;5.192;2023-04-12T12:50:33;99655.28;;;13.45;43.30
74627;BME280;63132;52.268;5.192;2023-04-12T12:52:59;99658.81;;;13.21;41.92
74627;BME280;63132;52.268;5.192;2023-04-12T12:55:26;99664.50;;;12.84;41.58
74627;BME280;63132;52.268;5.192;2023-04-12T12:57:53;99668.88;;;12.34;38.69
74627;BME280;63132;52.268;5.192;2023-04-12T13:00:20;99676.66;;;12.62;38.89
74627;BME280;63132;52.268;5.192;2023-04-12T13:02:46;99678.00;;;12.14;37.09
74627;BME280;63132;52.268;5.192;2023-04-12T13:05:12;99680.03;;;11.94;37.87
74627;BME280;63132;52.268;5.192;2023-04-12T13:07:37;99688.59;;;12.06;39.79
74627;BME280;63132;52.268;5.192;2023-04-12T13:10:03;99680.81;;;11.78;41.34
74627;BME280;63132;52.268;5.192;2023-04-12T13:12:29;99682.69;;;11.59;39.81
74627;BME280;63132;52.268;5.192;2023-04-12T13:14:56;99692.25;;;11.70;42.49
74627;BME280;63132;52.268;5.192;2023-04-12T13:17:21;99682.91;;;11.66;41.49
74627;BME280;63132;52.268;5.192;2023-04-12T13:19:47;99678.72;;;11.63;41.41
74627;BME280;63132;52.268;5.192;2023-04-12T13:22:13;99677.47;;;11.76;39.74
74627;BME280;63132;52.268;5.192;2023-04-12T13:24:39;99667.56;;;11.94;39.30
74627;BME280;63132;52.268;5.192;2023-04-12T13:27:04;99672.69;;;12.23;40.76
74627;BME280;63132;52.268;5.192;2023-04-12T13:29:30;99666.88;;;12.27;39.60
74627;BME280;63132;52.268;5.192;2023-04-12T13:31:55;99664.09;;;12.46;40.11